Time;durP1;ratioP1;P1;durP2;ratioP2;P2;SDS_P1;SDS_P2;PMS_P1;PMS_P2;Temp;Humidity;BMP_temperature;BMP_pressure;BME280_temperature;BME280_humidity;BME280_pressure;Samples;Min_cycle;Max_cycle;Signal;HPM_P1;HPM_P2
2024/02/12 00:02:20;;;;;;;36.00;19.67;;;7.70;99.90;;;;;;4929151;28;20043;-76
2024/02/12 00:04:48;;;;;;;41.50;19.42;;;7.60;99.90;;;;;;4927625;28;20039;-75
2024/02/12 00:07:17;;;;;;;36.75;18.50;;;7.50;99.90;;;;;;4960524;28;20035;-75
2024/02/12 00:09:45;;;;;;;32.50;18.70;;;7.50;99.90;;;;;;4959519;28;20035;-77
2024/02/12 00:12:12;;;;;;;39.95;21.00;;;7.40;99.90;;;;;;4930161;28;20038;-76
2024/02/12 00:14:39;;;;;;;37.65;20.02;;;7.30;99.90;;;;;;4941022;28;20414;-76
2024/02/12 00:17:09;;;;;;;42.15;21.40;;;7.30;99.90;;;;;;4944716;28;20039;-76
2024/02/12 00:19:35;;;;;;;35.95;19.35;;;7.30;99.90;;;;;;4959430;28;20039;-78
2024/02/12 00:22:02;;;;;;;46.65;21.90;;;7.30;99.90;;;;;;4960228;28;21360;-75
2024/02/12 00:24:28;;;;;;;44.95;23.67;;;7.20;99.90;;;;;;4942785;28;20035;-78
2024/02/12 00:27:00;;;;;;;40.65;21.02;;;7.20;99.90;;;;;;4955883;28;20027;-77
2024/02/12 00:29:30;;;;;;;34.95;19.23;;;7.20;99.90;;;;;;4972171;28;20039;-78
2024/02/12 00:31:58;;;;;;;32.78;17.83;;;7.10;99.90;;;;;;4942728;28;20035;-77
2024/02/12 00:34:26;;;;;;;31.83;16.52;;;7.10;99.90;;;;;;4957573;28;20043;-76
2024/02/12 00:36:52;;;;;;;26.27;15.32;;;7.00;99.90;;;;;;4925496;28;20043;-76
2024/02/12 00:39:19;;;;;;;31.65;16.00;;;7.00;99.90;;;;;;4941508;28;20035;-74
2024/02/12 00:41:50;;;;;;;36.05;17.27;;;7.00;99.90;;;;;;4943158;28;20050;-77
2024/02/12 00:44:20;;;;;;;35.47;19.15;;;7.10;99.90;;;;;;4958562;28;20047;-76
2024/02/12 00:46:47;;;;;;;36.75;19.20;;;7.10;99.90;;;;;;4942582;28;20050;-74
2024/02/12 00:49:17;;;;;;;38.13;21.00;;;7.10;99.90;;;;;;4924294;28;20788;-76
2024/02/12 00:51:44;;;;;;;42.83;22.33;;;7.20;99.90;;;;;;4928060;28;20279;-76
2024/02/12 00:54:14;;;;;;;46.47;23.23;;;7.30;99.90;;;;;;4958846;28;20524;-77
2024/02/12 00:56:45;;;;;;;54.13;23.98;;;7.30;99.90;;;;;;4940955;28;20047;-77
2024/02/12 00:59:14;;;;;;;49.95;22.63;;;7.40;99.90;;;;;;4956038;28;20043;-77
2024/02/12 01:01:41;;;;;;;46.88;21.90;;;7.40;99.90;;;;;;4965255;28;20035;-76
2024/02/12 01:04:08;;;;;;;50.67;25.45;;;7.40;99.90;;;;;;4901394;29;20047;-76
2024/02/12 01:06:36;;;;;;;51.85;25.52;;;7.50;99.90;;;;;;4930391;28;20391;-77
2024/02/12 01:09:05;;;;;;;59.03;26.35;;;7.50;99.90;;;;;;4966411;28;20781;-75
2024/02/12 01:11:32;;;;;;;55.85;25.98;;;7.50;99.90;;;;;;4924490;28;20043;-75
2024/02/12 01:13:58;;;;;;;50.13;26.70;;;7.50;99.90;;;;;;4925772;28;20536;-77
2024/02/12 01:16:27;;;;;;;54.70;25.20;;;7.50;99.90;;;;;;4955758;28;20035;-76
2024/02/12 01:18:54;;;;;;;56.60;27.75;;;7.60;99.90;;;;;;4959684;28;20039;-76
2024/02/12 01:21:21;;;;;;;73.45;33.97;;;7.60;99.90;;;;;;4928958;28;20074;-75
2024/02/12 01:23:47;;;;;;;77.43;33.78;;;7.60;99.90;;;;;;4928166;28;20031;-75
2024/02/12 01:26:13;;;;;;;63.78;31.90;;;7.70;99.90;;;;;;4929385;28;20058;-75
2024/02/12 01:28:43;;;;;;;63.33;30.30;;;7.70;99.90;;;;;;4927280;28;21102;-77
2024/02/12 01:31:17;;;;;;;60.97;29.33;;;7.70;99.90;;;;;;4928956;28;20755;-77
2024/02/12 01:33:46;;;;;;;57.58;27.98;;;7.70;99.90;;;;;;4958784;28;20035;-76
2024/02/12 01:36:14;;;;;;;72.00;32.30;;;7.80;99.90;;;;;;4959214;28;20035;-76
2024/02/12 01:38:41;;;;;;;66.82;30.88;;;7.70;99.90;;;;;;4943760;28;20028;-75
2024/02/12 01:41:08;;;;;;;62.67;29.38;;;7.70;99.90;;;;;;4929511;28;20491;-74
2024/02/12 01:43:36;;;;;;;71.82;31.77;;;7.70;99.90;;;;;;4978575;28;20054;-76
2024/02/12 01:46:07;;;;;;;76.10;34.20;;;7.80;99.90;;;;;;4957278;28;20035;-75
2024/02/12 01:48:35;;;;;;;63.33;31.33;;;7.70;99.90;;;;;;4939208;28;20042;-74
2024/02/12 01:51:07;;;;;;;63.17;31.95;;;7.70;99.90;;;;;;4962700;28;20833;-75
2024/02/12 01:53:35;;;;;;;67.47;31.80;;;7.80;99.90;;;;;;4947216;28;20050;-76
2024/02/12 01:56:02;;;;;;;65.55;33.40;;;7.80;99.90;;;;;;4927457;28;20031;-77
2024/02/12 01:58:42;;;;;;;61.47;30.20;;;7.80;99.90;;;;;;4977411;28;20038;-74
2024/02/12 02:01:13;;;;;;;62.50;31.00;;;7.80;99.90;;;;;;4931685;28;20046;-75
2024/02/12 02:03:40;;;;;;;56.42;29.60;;;7.80;99.90;;;;;;4931579;28;20532;-77
2024/02/12 02:06:07;;;;;;;61.97;31.38;;;7.80;99.90;;;;;;4942363;28;20055;-77
2024/02/12 02:08:37;;;;;;;78.25;39.42;;;7.80;99.90;;;;;;4929087;28;20047;-74
2024/02/12 02:11:07;;;;;;;71.07;36.80;;;7.80;99.90;;;;;;4960626;28;20042;-76
2024/02/12 02:13:42;;;;;;;69.88;35.83;;;7.80;99.90;;;;;;4978813;28;20043;-75
2024/02/12 02:16:28;;;;;;;79.30;40.28;;;7.90;99.90;;;;;;4931525;28;20043;-77
2024/02/12 02:18:54;;;;;;;63.92;34.85;;;7.80;99.90;;;;;;4962243;28;20561;-76
2024/02/12 02:21:40;;;;;;;63.58;31.40;;;7.80;99.90;;;;;;4957148;28;20050;-76
2024/02/12 02:24:07;;;;;;;69.25;35.15;;;7.80;99.90;;;;;;4945258;28;20375;-77
2024/02/12 02:26:34;;;;;;;75.90;39.53;;;7.90;99.90;;;;;;4928378;28;20028;-76
2024/02/12 02:29:01;;;;;;;80.65;40.50;;;7.80;99.90;;;;;;4944367;28;20145;-76
2024/02/12 02:31:27;;;;;;;69.57;37.00;;;7.80;99.90;;;;;;4962617;28;20035;-77
2024/02/12 02:33:54;;;;;;;64.85;33.55;;;7.90;99.90;;;;;;4944259;28;20044;-77
2024/02/12 02:36:20;;;;;;;72.43;37.22;;;7.90;99.90;;;;;;4930595;28;20116;-75
2024/02/12 02:38:48;;;;;;;62.03;32.05;;;7.90;99.90;;;;;;4946444;28;20066;-77
2024/02/12 02:41:14;;;;;;;63.95;31.15;;;7.90;99.90;;;;;;4927111;28;20372;-77
2024/02/12 02:43:41;;;;;;;59.35;29.08;;;7.90;99.90;;;;;;4945856;28;20047;-77
2024/02/12 02:46:07;;;;;;;61.45;31.63;;;8.00;99.90;;;;;;4941685;28;20051;-76
2024/02/12 02:48:34;;;;;;;63.80;29.92;;;8.00;99.90;;;;;;4958863;28;20406;-77
2024/02/12 02:51:01;;;;;;;72.03;36.70;;;8.00;99.90;;;;;;4962465;28;20043;-75
2024/02/12 02:53:27;;;;;;;77.60;38.58;;;8.00;99.90;;;;;;4946860;28;20734;-75
2024/02/12 02:55:54;;;;;;;78.18;37.90;;;8.00;99.90;;;;;;4942115;28;20035;-76
2024/02/12 02:58:20;;;;;;;73.78;36.90;;;8.00;99.90;;;;;;4931082;28;20058;-75
2024/02/12 03:00:47;;;;;;;74.40;37.00;;;8.00;99.90;;;;;;4930742;28;20640;-76
2024/02/12 03:03:13;;;;;;;70.65;33.15;;;8.00;99.90;;;;;;4942023;28;20505;-76
2024/02/12 03:05:39;;;;;;;66.95;32.72;;;8.00;99.90;;;;;;4959558;28;20667;-76
2024/02/12 03:08:11;;;;;;;75.57;38.42;;;8.10;99.90;;;;;;4963518;28;20039;-77
2024/02/12 03:10:37;;;;;;;73.90;36.13;;;8.00;99.90;;;;;;4961781;28;20043;-76
2024/02/12 03:13:06;;;;;;;81.47;39.60;;;8.00;99.90;;;;;;4930714;28;20031;-76
2024/02/12 03:15:36;;;;;;;83.63;37.45;;;8.10;99.90;;;;;;4945641;28;20046;-75
2024/02/12 03:18:04;;;;;;;78.20;37.45;;;8.00;99.90;;;;;;4961705;28;20035;-77
2024/02/12 03:20:30;;;;;;;105.03;45.22;;;8.10;99.90;;;;;;4961957;28;20046;-77
2024/02/12 03:22:57;;;;;;;82.38;39.13;;;8.10;99.90;;;;;;4960481;28;20040;-75
2024/02/12 03:25:23;;;;;;;69.35;34.35;;;8.00;99.90;;;;;;4961246;28;21258;-75
2024/02/12 03:27:50;;;;;;;84.65;38.28;;;8.00;99.90;;;;;;4962246;28;20031;-75
2024/02/12 03:30:18;;;;;;;84.05;38.20;;;8.00;99.90;;;;;;4961025;28;20043;-75
2024/02/12 03:32:44;;;;;;;84.63;40.05;;;8.00;99.90;;;;;;4930241;28;20035;-77
2024/02/12 03:35:11;;;;;;;83.05;38.45;;;8.00;99.90;;;;;;4961246;28;20027;-77
2024/02/12 03:37:48;;;;;;;77.40;36.20;;;7.90;99.90;;;;;;4960138;28;20358;-78
2024/02/12 03:40:17;;;;;;;68.90;33.05;;;7.90;99.90;;;;;;4945961;28;20047;-78
2024/02/12 03:42:49;;;;;;;63.80;30.25;;;7.90;99.90;;;;;;4930515;28;20391;-76
2024/02/12 03:45:16;;;;;;;59.78;28.90;;;7.90;99.90;;;;;;4945416;28;21152;-78
2024/02/12 03:47:44;;;;;;;71.15;34.72;;;7.90;99.90;;;;;;4946502;28;20378;-76
2024/02/12 04:01:23;;;;;;;73.32;33.00;;;7.60;99.90;;;;;;4931164;28;20046;-77
2024/02/12 04:03:49;;;;;;;61.45;29.95;;;7.50;99.90;;;;;;4960889;28;20039;-76
2024/02/12 04:06:16;;;;;;;68.25;31.30;;;7.50;99.90;;;;;;4959515;28;20043;-78
2024/02/12 04:08:43;;;;;;;59.50;27.50;;;7.50;99.90;;;;;;4960462;28;20042;-77
2024/02/12 04:11:09;;;;;;;58.72;27.33;;;7.40;99.90;;;;;;4943811;28;20043;-76
2024/02/12 04:13:37;;;;;;;56.65;26.90;;;7.40;99.90;;;;;;4959641;28;20031;-75
2024/02/12 04:16:06;;;;;;;51.92;25.27;;;7.30;99.90;;;;;;4944815;28;20042;-77
2024/02/12 04:18:32;;;;;;;50.25;24.95;;;7.30;99.90;;;;;;4959292;28;20062;-75
2024/02/12 04:20:59;;;;;;;58.30;27.73;;;7.20;99.90;;;;;;4942069;28;20043;-76
2024/02/12 04:23:27;;;;;;;52.20;27.17;;;7.10;99.90;;;;;;4944069;28;20050;-77
2024/02/12 04:25:54;;;;;;;50.97;25.70;;;7.10;99.90;;;;;;4942315;28;20042;-77
2024/02/12 04:28:21;;;;;;;51.25;25.00;;;7.10;99.90;;;;;;4960476;28;20031;-76
2024/02/12 04:30:47;;;;;;;42.30;22.60;;;7.10;99.90;;;;;;4944618;28;20051;-77
2024/02/12 04:33:16;;;;;;;64.25;29.10;;;7.00;99.90;;;;;;4941669;28;20035;-76
2024/02/12 04:35:45;;;;;;;65.30;30.58;;;7.00;99.90;;;;;;4960078;28;20031;-77
2024/02/12 04:38:11;;;;;;;73.95;34.33;;;7.00;99.90;;;;;;4940579;28;20028;-76
2024/02/12 04:40:38;;;;;;;85.63;39.95;;;7.10;99.90;;;;;;4928645;28;20480;-76
2024/02/12 04:43:04;;;;;;;75.38;35.40;;;7.10;99.90;;;;;;4929173;28;20042;-77
2024/02/12 04:45:31;;;;;;;81.65;36.42;;;7.20;99.90;;;;;;4931144;28;20192;-78
2024/02/12 04:47:57;;;;;;;76.10;36.83;;;7.20;99.90;;;;;;4961522;28;20040;-76
2024/02/12 04:50:23;;;;;;;90.30;37.85;;;7.30;99.90;;;;;;4930853;28;20035;-76
2024/02/12 04:52:51;;;;;;;87.50;38.05;;;7.20;99.90;;;;;;4961729;28;20043;-76
2024/02/12 04:55:17;;;;;;;108.05;44.08;;;7.20;99.90;;;;;;4980529;28;20031;-78
2024/02/12 04:57:43;;;;;;;94.97;40.83;;;7.20;99.90;;;;;;4947522;28;20424;-78
2024/02/12 05:00:10;;;;;;;78.63;35.55;;;7.20;99.90;;;;;;4930424;28;20047;-75
2024/02/12 05:02:48;;;;;;;91.80;40.83;;;7.20;99.90;;;;;;4945257;28;20053;-78
2024/02/12 05:05:14;;;;;;;77.95;34.85;;;7.10;99.90;;;;;;4962510;28;20083;-78
2024/02/12 05:07:41;;;;;;;74.25;34.60;;;7.00;99.90;;;;;;4947285;28;20506;-77
2024/02/12 05:10:08;;;;;;;71.82;32.35;;;7.00;99.90;;;;;;4950382;28;20054;-77
2024/02/12 05:12:35;;;;;;;75.35;34.78;;;7.00;99.90;;;;;;4963492;28;20364;-76
2024/02/12 05:15:02;;;;;;;78.45;34.72;;;7.00;99.90;;;;;;4962961;28;20291;-78
2024/02/12 05:17:31;;;;;;;80.05;33.85;;;6.90;99.90;;;;;;4962555;28;20399;-77
2024/02/12 05:22:43;;;;;;;73.80;31.75;;;6.90;99.90;;;;;;4963869;28;20038;-76
2024/02/12 05:25:11;;;;;;;70.63;32.80;;;6.90;99.90;;;;;;4962475;28;20416;-77
2024/02/12 05:27:38;;;;;;;71.55;31.27;;;6.80;99.90;;;;;;4930651;28;21043;-77
2024/02/12 05:30:06;;;;;;;83.32;34.70;;;6.80;99.90;;;;;;4963648;28;20404;-78
2024/02/12 05:32:33;;;;;;;88.05;39.22;;;6.80;99.90;;;;;;4932030;28;20383;-78
2024/02/12 05:34:59;;;;;;;85.32;37.97;;;6.90;99.90;;;;;;4979812;28;20396;-77
2024/02/12 05:37:26;;;;;;;82.15;37.00;;;6.90;99.90;;;;;;4962083;28;20692;-76
2024/02/12 05:39:52;;;;;;;83.47;35.97;;;6.90;99.90;;;;;;4963900;28;20470;-75
2024/02/12 05:42:18;;;;;;;87.13;34.72;;;6.80;99.90;;;;;;4947530;28;20039;-77
2024/02/12 05:44:45;;;;;;;89.82;36.60;;;6.80;99.90;;;;;;4978167;28;20035;-77
2024/02/12 05:47:12;;;;;;;97.65;37.80;;;6.80;99.90;;;;;;4947646;28;20040;-78
2024/02/12 05:49:39;;;;;;;99.43;40.58;;;6.80;99.90;;;;;;4945794;28;20035;-77
2024/02/12 05:52:06;;;;;;;114.20;44.63;;;6.80;99.90;;;;;;4931172;28;20502;-74
2024/02/12 05:54:33;;;;;;;90.50;38.25;;;6.80;99.90;;;;;;4931237;28;20039;-76
2024/02/12 05:57:02;;;;;;;96.40;38.78;;;6.70;99.90;;;;;;4946377;28;20490;-77
2024/02/12 05:59:32;;;;;;;79.18;32.53;;;6.70;99.90;;;;;;4948903;28;20039;-78
2024/02/12 06:02:00;;;;;;;82.78;34.60;;;6.60;99.90;;;;;;4935225;28;20034;-74
2024/02/12 06:04:27;;;;;;;75.45;32.22;;;6.50;99.90;;;;;;4934413;28;20046;-77
2024/02/12 06:06:53;;;;;;;73.97;30.40;;;6.50;99.90;;;;;;4934697;28;21177;-74
2024/02/12 06:09:19;;;;;;;79.05;31.95;;;6.40;99.90;;;;;;4964050;28;20050;-74
2024/02/12 06:11:46;;;;;;;67.47;28.75;;;6.40;99.90;;;;;;4966780;28;20027;-73
2024/02/12 06:14:12;;;;;;;71.72;28.45;;;6.40;99.90;;;;;;4953603;28;20398;-76
2024/02/12 06:16:38;;;;;;;68.18;27.98;;;6.40;99.90;;;;;;4965435;28;20046;-78
2024/02/12 06:19:07;;;;;;;73.20;29.58;;;6.50;99.90;;;;;;4950493;28;20034;-76
2024/02/12 06:21:35;;;;;;;70.68;30.52;;;6.50;99.90;;;;;;4964559;28;20116;-75
2024/02/12 06:24:05;;;;;;;69.00;28.55;;;6.60;99.90;;;;;;4964128;28;20032;-77
2024/02/12 06:26:33;;;;;;;72.88;29.83;;;6.60;99.90;;;;;;4964437;28;20058;-77
2024/02/12 06:28:59;;;;;;;82.78;32.50;;;6.60;99.90;;;;;;4964806;28;20035;-77
2024/02/12 06:31:27;;;;;;;95.13;36.40;;;6.70;99.90;;;;;;4931203;28;20466;-76
2024/02/12 06:33:53;;;;;;;78.22;32.53;;;6.70;99.90;;;;;;4964937;28;20035;-76
2024/02/12 06:36:20;;;;;;;69.93;29.50;;;6.70;99.90;;;;;;4965212;28;20039;-76
2024/02/12 06:38:46;;;;;;;76.18;30.33;;;6.70;99.90;;;;;;4981889;28;20155;-77
2024/02/12 06:41:13;;;;;;;82.75;31.35;;;6.80;99.90;;;;;;4949135;28;20047;-76
2024/02/12 06:43:40;;;;;;;95.38;35.05;;;6.80;99.90;;;;;;4932664;28;20522;-77
2024/02/12 06:46:06;;;;;;;84.50;31.90;;;6.80;99.90;;;;;;4949646;28;20475;-76
2024/02/12 06:48:33;;;;;;;76.75;30.38;;;6.80;99.90;;;;;;4965972;28;20031;-75
2024/02/12 06:51:08;;;;;;;91.03;34.50;;;6.80;99.90;;;;;;4948797;28;20058;-75
2024/02/12 06:53:44;;;;;;;92.25;35.80;;;6.80;99.90;;;;;;4964071;28;20047;-75
2024/02/12 06:56:11;;;;;;;94.68;33.95;;;6.80;99.90;;;;;;4964169;28;20055;-75
2024/02/12 06:58:37;;;;;;;84.45;31.70;;;6.90;99.90;;;;;;4980147;28;20042;-76
2024/02/12 07:01:04;;;;;;;88.30;33.55;;;6.90;99.90;;;;;;4965853;28;20142;-74
2024/02/12 07:03:32;;;;;;;94.18;35.78;;;6.90;99.90;;;;;;4963105;28;20034;-76
2024/02/12 07:05:59;;;;;;;75.18;30.42;;;6.90;99.90;;;;;;4961800;28;20035;-75
2024/02/12 07:08:25;;;;;;;86.95;33.88;;;6.90;99.90;;;;;;4947690;28;20031;-76
2024/02/12 07:10:52;;;;;;;90.95;35.97;;;6.90;99.90;;;;;;4980284;28;20522;-74
2024/02/12 07:13:18;;;;;;;91.32;35.45;;;6.90;99.90;;;;;;4948610;28;20047;-76
2024/02/12 07:15:45;;;;;;;86.55;34.75;;;6.90;99.90;;;;;;4918438;28;20042;-76
2024/02/12 07:18:11;;;;;;;86.78;33.08;;;6.90;99.90;;;;;;4932857;28;20043;-78
2024/02/12 07:20:39;;;;;;;81.55;32.40;;;7.00;99.90;;;;;;4931384;28;20050;-77
2024/02/12 07:23:06;;;;;;;84.28;33.78;;;7.00;99.90;;;;;;4962269;28;20042;-74
2024/02/12 07:25:34;;;;;;;80.22;32.13;;;6.90;99.90;;;;;;4963985;28;20035;-75
2024/02/12 07:28:03;;;;;;;75.95;30.92;;;7.00;99.90;;;;;;4962545;28;20438;-76
2024/02/12 07:30:30;;;;;;;80.43;30.80;;;7.00;99.90;;;;;;4977434;28;20534;-80
2024/02/12 07:32:59;;;;;;;79.82;31.30;;;7.10;99.90;;;;;;4960994;28;20509;-75
2024/02/12 07:35:29;;;;;;;78.35;30.10;;;7.00;99.90;;;;;;4978133;28;20035;-78
2024/02/12 07:37:55;;;;;;;101.63;36.60;;;7.10;99.90;;;;;;4961895;28;20433;-78
2024/02/12 07:40:22;;;;;;;87.82;34.20;;;7.10;99.90;;;;;;4931430;28;20030;-77
2024/02/12 07:42:48;;;;;;;88.13;35.58;;;7.10;99.90;;;;;;4964141;28;20047;-77
2024/02/12 07:45:15;;;;;;;95.30;35.95;;;7.10;99.90;;;;;;4947680;28;20043;-76
2024/02/12 07:47:43;;;;;;;92.93;36.83;;;7.20;99.90;;;;;;4961417;28;21547;-77
2024/02/12 07:50:10;;;;;;;100.28;38.08;;;7.20;99.90;;;;;;4960936;28;20064;-77
2024/02/12 07:52:38;;;;;;;90.07;35.30;;;7.20;99.90;;;;;;4932123;28;20046;-79
2024/02/12 07:55:07;;;;;;;83.07;33.00;;;7.20;99.90;;;;;;4933197;28;20042;-77
2024/02/12 07:57:48;;;;;;;84.32;32.08;;;7.20;99.90;;;;;;4961292;28;20043;-75
2024/02/12 08:00:17;;;;;;;88.78;34.55;;;7.20;99.90;;;;;;4961895;28;20244;-77
2024/02/12 08:02:47;;;;;;;84.07;33.50;;;7.20;99.90;;;;;;4961086;28;20031;-77
2024/02/12 08:05:15;;;;;;;67.70;29.00;;;7.20;99.90;;;;;;4931946;28;20036;-74
2024/02/12 08:07:42;;;;;;;67.78;29.02;;;7.20;99.90;;;;;;4947932;28;20555;-77
2024/02/12 08:10:10;;;;;;;70.13;30.42;;;7.30;99.90;;;;;;4977555;28;20600;-75
2024/02/12 08:12:37;;;;;;;76.22;31.05;;;7.30;99.90;;;;;;4945429;28;20039;-77
2024/02/12 08:15:04;;;;;;;77.15;31.05;;;7.40;99.90;;;;;;4962682;28;20035;-77
2024/02/12 08:17:32;;;;;;;79.70;31.08;;;7.40;99.90;;;;;;4946825;28;20062;-75
2024/02/12 08:19:58;;;;;;;76.78;31.95;;;7.50;99.90;;;;;;4946737;28;20045;-77
2024/02/12 08:22:25;;;;;;;95.75;38.47;;;7.50;99.90;;;;;;4946635;28;20098;-77
2024/02/12 08:24:52;;;;;;;90.65;35.72;;;7.60;99.90;;;;;;4962470;28;20027;-75
2024/02/12 08:27:20;;;;;;;80.50;31.48;;;7.60;99.90;;;;;;4947951;28;20045;-78
2024/02/12 08:29:47;;;;;;;95.90;38.50;;;7.60;99.90;;;;;;4931036;28;20031;-76
2024/02/12 08:32:14;;;;;;;77.10;31.90;;;7.70;99.90;;;;;;4963437;28;20495;-74
2024/02/12 08:34:40;;;;;;;80.65;31.13;;;7.70;99.90;;;;;;4947312;28;20829;-76
2024/02/12 08:37:10;;;;;;;81.75;33.60;;;7.70;99.90;;;;;;4964557;28;20039;-77
2024/02/12 08:39:41;;;;;;;78.28;32.97;;;7.80;99.90;;;;;;4960838;28;20042;-75
2024/02/12 08:42:07;;;;;;;85.30;34.65;;;7.80;99.90;;;;;;4961273;28;20039;-76
2024/02/12 08:44:34;;;;;;;90.75;35.67;;;7.80;99.90;;;;;;4961345;28;20070;-79
2024/02/12 08:47:00;;;;;;;91.70;37.88;;;7.90;99.90;;;;;;4960300;28;20525;-78
2024/02/12 08:49:27;;;;;;;86.65;35.78;;;7.90;99.90;;;;;;4947097;28;20044;-78
2024/02/12 08:51:54;;;;;;;84.30;34.58;;;8.00;99.90;;;;;;4963314;28;20054;-74
2024/02/12 08:54:23;;;;;;;76.30;32.63;;;8.10;99.90;;;;;;4946798;28;20644;-78
2024/02/12 08:56:49;;;;;;;91.97;37.58;;;8.20;99.90;;;;;;4945644;28;20047;-77
2024/02/12 08:59:16;;;;;;;84.47;34.72;;;8.30;99.90;;;;;;4963329;28;20035;-77
2024/02/12 09:01:43;;;;;;;88.03;36.97;;;8.40;99.90;;;;;;4962445;28;20360;-77
2024/02/12 09:04:14;;;;;;;87.72;38.13;;;8.50;99.90;;;;;;4930811;28;20047;-78
2024/02/12 09:06:41;;;;;;;81.45;35.00;;;8.50;99.90;;;;;;4978930;28;20043;-75
2024/02/12 09:09:11;;;;;;;78.82;36.05;;;8.60;99.90;;;;;;4977780;28;20028;-75
2024/02/12 09:11:41;;;;;;;88.67;40.23;;;8.60;99.90;;;;;;4963521;28;20035;-75
2024/02/12 09:14:08;;;;;;;84.63;38.70;;;8.60;99.90;;;;;;4946844;28;20058;-76
2024/02/12 09:16:38;;;;;;;84.82;40.72;;;8.70;99.90;;;;;;4930599;28;20035;-75
2024/02/12 09:19:05;;;;;;;80.63;37.63;;;8.70;99.90;;;;;;4916303;29;20475;-75
2024/02/12 09:21:33;;;;;;;84.38;41.17;;;8.80;99.90;;;;;;4961677;28;20031;-76
2024/02/12 09:23:59;;;;;;;79.63;40.00;;;8.80;99.90;;;;;;4961036;28;20038;-76
2024/02/12 09:26:25;;;;;;;79.90;37.65;;;8.80;99.90;;;;;;4932519;28;20038;-75
2024/02/12 09:28:52;;;;;;;68.78;34.05;;;8.80;99.90;;;;;;4932328;28;20462;-75
2024/02/12 09:31:19;;;;;;;70.53;34.30;;;8.80;99.90;;;;;;4935577;28;20050;-75
2024/02/12 09:33:46;;;;;;;64.70;32.78;;;8.70;99.90;;;;;;4963846;28;20495;-77
2024/02/12 09:36:13;;;;;;;75.85;36.55;;;8.80;99.90;;;;;;4933131;28;20051;-76
2024/02/12 09:38:39;;;;;;;78.60;37.17;;;8.80;99.90;;;;;;4934000;28;20035;-76
2024/02/12 09:41:06;;;;;;;93.10;44.05;;;8.80;99.90;;;;;;4964815;28;20031;-76
2024/02/12 09:43:34;;;;;;;87.43;42.33;;;8.80;99.90;;;;;;4963298;28;20602;-76
2024/02/12 09:46:05;;;;;;;83.40;40.45;;;8.80;99.90;;;;;;4946800;28;20112;-76
2024/02/12 09:48:32;;;;;;;87.35;42.25;;;8.80;99.90;;;;;;4962634;28;20035;-73
2024/02/12 09:50:59;;;;;;;84.53;40.92;;;8.80;99.90;;;;;;4962850;28;20043;-75
2024/02/12 09:53:27;;;;;;;88.97;44.90;;;8.80;99.90;;;;;;4962606;28;20031;-75
2024/02/12 09:55:56;;;;;;;92.78;44.55;;;8.70;99.90;;;;;;4964348;28;20035;-76
2024/02/12 09:58:22;;;;;;;105.30;47.65;;;8.70;99.90;;;;;;4947728;28;20379;-75
2024/02/12 10:00:48;;;;;;;100.15;47.13;;;8.70;99.90;;;;;;4949616;28;20035;-76
2024/02/12 10:03:35;;;;;;;88.35;41.03;;;8.60;99.90;;;;;;4934150;28;20399;-76
2024/02/12 10:06:21;;;;;;;83.30;43.15;;;8.70;99.90;;;;;;4945365;28;21229;-77
2024/02/12 10:09:08;;;;;;;92.13;43.03;;;8.70;99.90;;;;;;4933297;28;20462;-75
2024/02/12 10:11:55;;;;;;;106.53;49.33;;;8.70;99.90;;;;;;4945781;28;20043;-76
2024/02/12 10:14:42;;;;;;;92.22;43.75;;;8.60;99.90;;;;;;4931195;28;20051;-76
2024/02/12 10:17:29;;;;;;;84.45;41.95;;;8.60;99.90;;;;;;4958420;28;20058;-76
2024/02/12 10:20:18;;;;;;;91.13;44.42;;;8.60;99.90;;;;;;4946167;28;20494;-76
2024/02/12 10:23:04;;;;;;;95.47;43.90;;;8.70;99.90;;;;;;4945333;28;20640;-76
2024/02/12 10:25:51;;;;;;;98.97;45.17;;;8.70;99.90;;;;;;4959386;28;20495;-77
2024/02/12 10:28:38;;;;;;;89.80;42.15;;;8.80;99.90;;;;;;4933213;28;20054;-76
2024/02/12 10:31:25;;;;;;;96.60;45.72;;;8.90;99.90;;;;;;4971949;28;20399;-74
2024/02/12 10:34:14;;;;;;;94.95;44.42;;;9.00;99.90;;;;;;4956252;28;20039;-78
2024/02/12 10:37:05;;;;;;;86.72;42.13;;;9.20;99.90;;;;;;4918476;28;20521;-78
2024/02/12 10:39:52;;;;;;;78.57;41.00;;;9.40;99.90;;;;;;4971444;28;20042;-77
2024/02/12 10:42:52;;;;;;;95.63;46.22;;;9.50;99.90;;;;;;4931157;28;20550;-76
2024/02/12 10:45:38;;;;;;;80.75;40.08;;;9.60;99.90;;;;;;4943807;28;20058;-77
2024/02/12 10:48:25;;;;;;;65.45;38.22;;;9.70;99.90;;;;;;4933458;28;20070;-77
2024/02/12 10:51:13;;;;;;;66.22;38.95;;;9.70;99.90;;;;;;4931553;28;20035;-77
2024/02/12 10:54:00;;;;;;;65.07;37.45;;;9.80;99.90;;;;;;4946665;28;20042;-79
2024/02/12 10:56:43;;;;;;;66.45;36.05;;;9.80;99.90;;;;;;4947195;28;20046;-75
2024/02/12 10:59:13;;;;;;;53.75;30.77;;;10.10;99.90;;;;;;4949962;28;20043;-73
2024/02/12 11:01:40;;;;;;;47.00;29.58;;;10.30;99.90;;;;;;4934384;28;20062;-78
2024/02/12 11:04:11;;;;;;;40.55;27.02;;;10.50;99.90;;;;;;4949606;28;20062;-74
2024/02/12 11:06:41;;;;;;;34.10;23.95;;;10.70;99.90;;;;;;4979580;28;20031;-77
2024/02/12 11:09:12;;;;;;;31.40;21.00;;;10.70;99.90;;;;;;4949379;28;20494;-77
2024/02/12 11:11:46;;;;;;;26.98;19.30;;;10.70;99.90;;;;;;4962661;28;20050;-78
2024/02/12 11:14:18;;;;;;;26.52;19.17;;;10.70;99.90;;;;;;4965581;28;20568;-80
2024/02/12 11:16:49;;;;;;;25.58;18.95;;;10.70;99.90;;;;;;4947279;28;20711;-79
2024/02/12 11:19:17;;;;;;;28.67;19.02;;;10.70;99.90;;;;;;4948783;28;20039;-79
2024/02/12 11:21:44;;;;;;;25.50;19.25;;;10.80;99.90;;;;;;4949986;28;20039;-76
2024/02/12 11:24:12;;;;;;;26.05;18.67;;;10.80;99.90;;;;;;4935758;28;20032;-75
2024/02/12 11:26:43;;;;;;;29.80;20.17;;;10.80;99.90;;;;;;4965117;28;20027;-79
2024/02/12 11:29:11;;;;;;;29.70;21.13;;;10.70;99.90;;;;;;4950117;28;20039;-78
2024/02/12 11:31:41;;;;;;;27.77;19.85;;;10.60;99.90;;;;;;4964980;28;20035;-78
2024/02/12 11:34:19;;;;;;;28.13;20.80;;;10.60;99.90;;;;;;4966052;28;20046;-78
2024/02/12 11:37:03;;;;;;;31.65;21.50;;;10.50;99.90;;;;;;4963695;28;20430;-76
2024/02/12 11:39:30;;;;;;;31.85;20.92;;;10.40;99.90;;;;;;4963479;28;20031;-79
2024/02/12 11:41:58;;;;;;;25.17;19.88;;;10.40;99.90;;;;;;4947610;28;20035;-77
2024/02/12 11:44:24;;;;;;;28.15;19.08;;;10.30;99.90;;;;;;4950013;28;20395;-77
2024/02/12 11:46:59;;;;;;;23.92;18.70;;;10.20;99.90;;;;;;4963678;28;20050;-80
2024/02/12 11:49:26;;;;;;;23.90;18.60;;;10.00;99.90;;;;;;4933202;28;20038;-75
2024/02/12 11:51:55;;;;;;;22.58;16.48;;;9.90;99.90;;;;;;4932869;28;20046;-77
2024/02/12 11:54:21;;;;;;;20.40;16.20;;;9.80;99.90;;;;;;4963116;28;20043;-82
2024/02/12 11:56:50;;;;;;;23.90;17.92;;;9.70;99.90;;;;;;4964677;28;20042;-83
2024/02/12 11:59:21;;;;;;;22.77;16.52;;;9.70;99.90;;;;;;4979921;28;20418;-79
2024/02/12 12:01:48;;;;;;;22.65;13.93;;;9.70;99.90;;;;;;4964080;28;20047;-79
2024/02/12 12:04:17;;;;;;;17.92;13.80;;;9.70;99.90;;;;;;4947665;28;20525;-79
2024/02/12 12:06:43;;;;;;;18.10;12.40;;;9.70;99.90;;;;;;4948744;28;20049;-81
2024/02/12 12:09:09;;;;;;;17.33;11.10;;;9.80;99.90;;;;;;4948132;28;20039;-80
2024/02/12 12:11:39;;;;;;;15.35;10.35;;;9.80;99.90;;;;;;4933004;28;20043;-82
2024/02/12 12:14:06;;;;;;;14.75;10.60;;;9.80;99.90;;;;;;4930802;28;20035;-79
2024/02/12 12:16:32;;;;;;;14.95;8.55;;;9.80;99.90;;;;;;4948575;28;21030;-78
2024/02/12 12:19:04;;;;;;;12.98;7.82;;;9.80;99.90;;;;;;4932281;28;20038;-77
2024/02/12 12:21:31;;;;;;;11.02;7.35;;;9.70;99.90;;;;;;4962357;28;20046;-79
2024/02/12 12:24:00;;;;;;;11.20;7.85;;;9.70;99.90;;;;;;4932088;28;20467;-76
2024/02/12 12:26:27;;;;;;;10.13;7.70;;;9.70;99.90;;;;;;4931226;28;20027;-81
2024/02/12 12:28:54;;;;;;;11.93;8.23;;;9.60;99.90;;;;;;4963500;28;20046;-80
2024/02/12 12:31:20;;;;;;;12.85;8.82;;;9.60;99.90;;;;;;4964129;28;20051;-74
2024/02/12 12:33:46;;;;;;;11.98;8.63;;;9.60;99.90;;;;;;4962416;28;20423;-77
2024/02/12 12:36:13;;;;;;;10.85;8.35;;;9.50;99.90;;;;;;4944506;28;20039;-81
2024/02/12 12:38:40;;;;;;;10.43;7.97;;;9.60;99.90;;;;;;4962943;28;20035;-80
2024/02/12 12:41:07;;;;;;;10.13;9.13;;;9.70;99.90;;;;;;4961323;28;20034;-80
2024/02/12 12:43:35;;;;;;;12.75;8.85;;;9.80;99.90;;;;;;4947148;28;20039;-79
2024/02/12 12:46:05;;;;;;;15.10;9.88;;;10.10;99.90;;;;;;4945890;28;20435;-80
2024/02/12 12:48:39;;;;;;;12.73;8.55;;;10.30;99.90;;;;;;4961068;28;20376;-80
2024/02/12 12:51:05;;;;;;;13.20;7.97;;;10.40;99.90;;;;;;4964719;28;20046;-75
2024/02/12 12:53:32;;;;;;;14.18;9.30;;;10.60;99.90;;;;;;4930335;28;20043;-79
2024/02/12 12:55:59;;;;;;;11.25;8.18;;;10.60;99.90;;;;;;4948471;28;20760;-80
2024/02/12 12:58:25;;;;;;;15.40;8.85;;;10.80;99.90;;;;;;4961978;28;20260;-78
2024/02/12 13:00:52;;;;;;;12.32;8.90;;;10.80;99.90;;;;;;4964624;28;20042;-80